West Farmington, Ohio
Current Conditions -  °F | °C
As of 2:51 PM on Friday 21 Nov 2014 (Local Time) from KYNG Reporting Station
Broken Clouds Broken Clouds  
Wind Chill: 14°   Ceiling: 3500
Heat Index: 23°   Visibility: 10mi
Dew Point: 10°   Wind: 8mph
Humidity: 58%   Direction: 250°WSW
Pressure: 30.44"   Gusts: NA
Location:  41.39°N, 80.97°W
Report Text: KYNG 211951Z 25007KT 10SM BKN035 M05/M12 A3044 RMK AO2 SLP329 T10501122
Loading
Personal Weather Stations






























Interactive Weather Map New forecast layout! Learn more

10-Day Weather Forecast

Advertisements
Track Severe Weather on mobile